createdAt,value
2018-11-22T00:00:41.159Z,1014.88
2018-11-22T00:02:41.222Z,1014.91
2018-11-22T00:04:41.287Z,1014.92
2018-11-22T00:05:41.564Z,1014.92
2018-11-22T00:08:41.416Z,1014.91
2018-11-22T00:09:41.440Z,1014.93
2018-11-22T00:13:41.568Z,1014.91
2018-11-22T00:14:41.845Z,1014.85
2018-11-22T00:18:41.792Z,1014.87
2018-11-22T00:22:41.846Z,1014.90
2018-11-22T00:23:42.135Z,1014.91
2018-11-22T00:24:41.859Z,1014.91
2018-11-22T00:25:41.990Z,1014.89
2018-11-22T00:26:41.919Z,1014.91
2018-11-22T00:27:42.002Z,1014.87
2018-11-22T00:28:41.986Z,1014.89
2018-11-22T00:29:42.320Z,1014.91
2018-11-22T00:30:42.094Z,1014.89
2018-11-22T00:31:42.432Z,1014.92
2018-11-22T00:32:42.156Z,1014.95
2018-11-22T00:35:42.209Z,1014.92
2018-11-22T00:37:42.564Z,1014.95
2018-11-22T00:38:42.297Z,1014.95
2018-11-22T00:39:42.376Z,1014.96
2018-11-22T00:40:42.357Z,1014.99
2018-11-22T00:41:42.436Z,1014.98
2018-11-22T00:43:42.558Z,1014.98
2018-11-22T00:44:42.792Z,1015.00
2018-11-22T00:45:42.563Z,1014.99
2018-11-22T00:46:42.598Z,1014.98
2018-11-22T00:47:42.626Z,1015.02
2018-11-22T00:48:42.654Z,1015.04
2018-11-22T00:49:42.641Z,1015.01
2018-11-22T00:50:42.968Z,1015.05
2018-11-22T00:53:42.814Z,1015.03
2018-11-22T00:54:42.796Z,1015.02
2018-11-22T00:55:42.881Z,1015.05
2018-11-22T00:56:42.916Z,1015.03
2018-11-22T00:57:42.962Z,1015.04
2018-11-22T00:58:42.918Z,1015.05
2018-11-22T01:00:43.036Z,1015.06
2018-11-22T01:04:43.168Z,1015.12
2018-11-22T01:05:43.191Z,1015.14
2018-11-22T01:06:43.168Z,1015.14
2018-11-22T01:07:43.251Z,1015.12
2018-11-22T01:08:43.280Z,1015.12
2018-11-22T01:09:43.318Z,1015.14
2018-11-22T01:10:43.304Z,1015.13
2018-11-22T01:15:43.848Z,1015.12
2018-11-22T01:16:43.536Z,1015.09
2018-11-22T01:17:43.584Z,1015.13
2018-11-22T01:19:43.624Z,1015.11
2018-11-22T01:20:43.605Z,1015.10
2018-11-22T01:21:43.686Z,1015.11
2018-11-22T01:24:43.733Z,1015.09
2018-11-22T01:25:43.812Z,1015.05
2018-11-22T01:26:43.847Z,1015.10
2018-11-22T01:27:43.878Z,1015.07
2018-11-22T01:28:43.857Z,1015.02
2018-11-22T01:30:43.925Z,1015.01
2018-11-22T01:31:43.950Z,1014.98
2018-11-22T01:32:44.032Z,1014.99
2018-11-22T01:33:44.166Z,1015.03
2018-11-22T01:34:44.449Z,1014.99
2018-11-22T01:35:44.127Z,1014.97
2018-11-22T01:36:44.108Z,1014.94
2018-11-22T01:37:44.189Z,1015.00
2018-11-22T01:38:44.224Z,1014.98
2018-11-22T01:39:44.255Z,1014.98
2018-11-22T01:40:44.544Z,1014.98
2018-11-22T01:41:44.315Z,1014.96
2018-11-22T01:42:44.400Z,1014.95
2018-11-22T01:44:44.406Z,1014.95
2018-11-22T01:45:44.442Z,1014.96
2018-11-22T01:46:44.424Z,1014.97
2018-11-22T01:47:44.756Z,1014.94
2018-11-22T01:48:44.531Z,1014.94
2018-11-22T01:49:44.571Z,1014.94
2018-11-22T01:50:44.545Z,1014.95
2018-11-22T01:51:44.628Z,1014.95
2018-11-22T01:52:44.610Z,1014.96
2018-11-22T01:53:44.640Z,1014.92
2018-11-22T01:54:45.122Z,1014.94
2018-11-22T01:55:44.752Z,1014.92
2018-11-22T01:56:44.780Z,1014.89
2018-11-22T01:57:44.763Z,1014.92
2018-11-22T01:58:44.847Z,1014.92
2018-11-22T01:59:44.873Z,1014.92
2018-11-22T02:00:44.954Z,1014.90
2018-11-22T02:01:45.185Z,1014.88
2018-11-22T02:02:44.972Z,1014.88
2018-11-22T02:03:45.000Z,1014.86
2018-11-22T02:04:44.989Z,1014.83
2018-11-22T02:05:45.062Z,1014.83
2018-11-22T02:06:45.043Z,1014.85
2018-11-22T02:07:45.123Z,1014.86
2018-11-22T02:08:45.409Z,1014.86
2018-11-22T02:09:45.186Z,1014.85
2018-11-22T02:10:45.220Z,1014.84
2018-11-22T02:11:45.247Z,1014.82
2018-11-22T02:12:45.233Z,1014.82
2018-11-22T02:13:45.272Z,1014.84
2018-11-22T02:14:45.308Z,1014.81
2018-11-22T02:15:45.629Z,1014.82
2018-11-22T02:16:45.427Z,1014.82
2018-11-22T02:17:45.434Z,1014.83
2018-11-22T02:18:45.469Z,1014.87
2018-11-22T02:19:45.502Z,1014.85
2018-11-22T02:20:45.479Z,1014.85
2018-11-22T02:21:45.565Z,1014.86
2018-11-22T02:22:45.845Z,1014.90
2018-11-22T02:23:45.627Z,1014.84
2018-11-22T02:24:45.657Z,1014.85
2018-11-22T02:25:45.785Z,1014.83
2018-11-22T02:26:45.668Z,1014.82
2018-11-22T02:27:45.748Z,1014.85
2018-11-22T02:28:45.729Z,1014.89
2018-11-22T02:29:46.060Z,1014.87
2018-11-22T02:30:45.842Z,1014.85
2018-11-22T02:31:45.877Z,1014.88
2018-11-22T02:32:45.859Z,1014.89
2018-11-22T02:33:45.939Z,1014.87
2018-11-22T02:34:45.968Z,1014.85
2018-11-22T02:35:45.950Z,1014.83
2018-11-22T02:36:46.277Z,1014.86
2018-11-22T02:37:46.078Z,1014.83
2018-11-22T02:38:46.089Z,1014.82
2018-11-22T02:39:46.125Z,1014.83
2018-11-22T02:40:46.201Z,1014.86
2018-11-22T02:41:46.141Z,1014.80
2018-11-22T02:42:46.165Z,1014.83
2018-11-22T02:43:46.504Z,1014.82
2018-11-22T02:44:46.277Z,1014.80
2018-11-22T02:45:46.314Z,1014.83
2018-11-22T02:46:46.290Z,1014.83
2018-11-22T02:47:46.328Z,1014.83
2018-11-22T02:48:46.352Z,1014.87
2018-11-22T02:49:46.434Z,1014.80
2018-11-22T02:50:46.712Z,1014.83
2018-11-22T02:51:46.505Z,1014.83
2018-11-22T02:52:46.477Z,1014.83
2018-11-22T02:53:46.506Z,1014.82
2018-11-22T02:54:46.594Z,1014.80
2018-11-22T02:55:46.569Z,1014.82
2018-11-22T02:56:46.664Z,1014.80
2018-11-22T02:57:46.983Z,1014.87
2018-11-22T02:58:46.668Z,1014.84
2018-11-22T02:59:46.746Z,1014.82
2018-11-22T03:00:46.780Z,1014.83
2018-11-22T03:01:46.811Z,1014.82
2018-11-22T03:02:46.808Z,1014.83
2018-11-22T03:03:46.878Z,1014.87
2018-11-22T03:04:47.158Z,1014.87
2018-11-22T03:05:46.934Z,1014.86
2018-11-22T03:06:46.914Z,1014.84
2018-11-22T03:07:46.994Z,1014.89
2018-11-22T03:08:46.976Z,1014.85
2018-11-22T03:09:47.061Z,1014.87
2018-11-22T03:10:47.048Z,1014.87
2018-11-22T03:11:47.371Z,1014.85
2018-11-22T03:12:48.233Z,1014.87
2018-11-22T03:13:47.181Z,1014.82
2018-11-22T03:14:47.163Z,1014.85
2018-11-22T03:15:47.241Z,1014.84
2018-11-22T03:16:47.281Z,1014.85
2018-11-22T03:17:47.564Z,1014.85
2018-11-22T03:18:47.290Z,1014.87
2018-11-22T03:19:47.320Z,1014.87
2018-11-22T03:20:47.397Z,1014.88
2018-11-22T03:21:47.434Z,1014.85
2018-11-22T03:22:47.413Z,1014.87
2018-11-22T03:23:47.742Z,1014.88
2018-11-22T03:24:47.476Z,1014.88
2018-11-22T03:25:47.508Z,1014.86
2018-11-22T03:27:47.672Z,1014.82
2018-11-22T03:28:47.598Z,1014.88
2018-11-22T03:29:47.930Z,1014.88
2018-11-22T03:30:47.660Z,1014.88
2018-11-22T03:31:47.745Z,1014.84
2018-11-22T03:32:47.724Z,1014.82
2018-11-22T03:33:47.802Z,1014.81
2018-11-22T03:34:47.784Z,1014.80
2018-11-22T03:35:47.834Z,1014.83
2018-11-22T03:36:47.917Z,1014.82
2018-11-22T03:37:47.884Z,1014.80
2018-11-22T03:38:47.961Z,1014.80
2018-11-22T03:39:47.944Z,1014.84
2018-11-22T03:40:48.023Z,1014.85
2018-11-22T03:41:48.057Z,1014.83
2018-11-22T03:42:48.344Z,1014.79
2018-11-22T03:43:48.066Z,1014.80
2018-11-22T03:44:48.148Z,1014.78
2018-11-22T03:45:48.185Z,1014.78
2018-11-22T03:46:48.158Z,1014.76
2018-11-22T03:47:48.239Z,1014.77
2018-11-22T03:48:48.220Z,1014.75
2018-11-22T03:49:50.443Z,1014.77
2018-11-22T03:50:48.282Z,1014.78
2018-11-22T03:51:48.317Z,1014.73
2018-11-22T03:52:48.396Z,1014.81
2018-11-22T03:53:48.375Z,1014.73
2018-11-22T03:54:48.461Z,1014.77
2018-11-22T03:55:48.489Z,1014.72
2018-11-22T03:56:48.771Z,1014.72
2018-11-22T03:57:48.549Z,1014.74
2018-11-22T03:58:48.582Z,1014.74
2018-11-22T03:59:48.617Z,1014.72
2018-11-22T04:01:48.647Z,1014.75
2018-11-22T04:02:48.659Z,1014.77
2018-11-22T04:03:48.989Z,1014.75
2018-11-22T04:04:48.772Z,1014.76
2018-11-22T04:05:48.807Z,1014.75
2018-11-22T04:06:48.796Z,1014.73
2018-11-22T04:07:48.812Z,1014.72
2018-11-22T04:09:48.926Z,1014.75
2018-11-22T04:10:48.910Z,1014.76
2018-11-22T04:11:48.937Z,1014.75
2018-11-22T04:12:49.031Z,1014.77
2018-11-22T04:13:49.050Z,1014.74
2018-11-22T04:14:49.112Z,1014.71
2018-11-22T04:15:49.065Z,1014.72
2018-11-22T04:16:49.104Z,1014.77
2018-11-22T04:17:49.125Z,1014.74
2018-11-22T04:18:49.159Z,1014.74
2018-11-22T04:19:49.241Z,1014.75
2018-11-22T04:21:49.248Z,1014.74
2018-11-22T04:22:49.631Z,1014.72
2018-11-22T04:24:49.394Z,1014.70
2018-11-22T04:25:49.426Z,1014.69
2018-11-22T04:27:49.490Z,1014.66
2018-11-22T04:28:49.774Z,1014.64
2018-11-22T04:29:49.562Z,1014.70
2018-11-22T04:30:49.533Z,1014.71
2018-11-22T04:31:49.613Z,1014.69
2018-11-22T04:32:49.649Z,1014.70
2018-11-22T04:33:49.626Z,1014.70
2018-11-22T04:34:49.709Z,1014.70
2018-11-22T04:35:49.690Z,1014.71
2018-11-22T04:36:49.717Z,1014.71
2018-11-22T04:37:49.747Z,1014.72
2018-11-22T04:38:49.779Z,1014.72
2018-11-22T04:39:49.861Z,1014.69
2018-11-22T04:41:50.178Z,1014.71
2018-11-22T04:42:49.955Z,1014.70
2018-11-22T04:45:50.096Z,1014.68
2018-11-22T04:46:50.030Z,1014.69
2018-11-22T04:47:50.113Z,1014.72
2018-11-22T04:48:50.388Z,1014.72
2018-11-22T04:49:50.170Z,1014.73
2018-11-22T04:50:50.147Z,1014.67
2018-11-22T04:51:50.178Z,1014.70
2018-11-22T04:52:50.222Z,1014.70
2018-11-22T04:53:50.240Z,1014.71
2018-11-22T04:54:50.430Z,1014.70
2018-11-22T04:55:50.359Z,1014.73
2018-11-22T04:56:50.692Z,1014.73
2018-11-22T04:57:50.420Z,1014.72
2018-11-22T04:58:50.451Z,1014.69
2018-11-22T04:59:50.431Z,1014.68
2018-11-22T05:00:50.523Z,1014.65
2018-11-22T05:01:50.857Z,1014.71
2018-11-22T05:02:50.529Z,1014.66
2018-11-22T05:03:50.555Z,1014.65
2018-11-22T05:04:50.760Z,1014.67
2018-11-22T05:05:50.669Z,1014.61
2018-11-22T05:06:50.669Z,1014.63
2018-11-22T05:07:50.735Z,1014.64
2018-11-22T05:09:51.051Z,1014.60
2018-11-22T05:10:50.774Z,1014.60
2018-11-22T05:11:50.851Z,1014.65
2018-11-22T05:12:50.884Z,1014.64
2018-11-22T05:13:50.979Z,1014.63
2018-11-22T05:14:50.945Z,1014.65
2018-11-22T05:15:50.924Z,1014.62
2018-11-22T05:16:51.269Z,1014.61
2018-11-22T05:17:51.287Z,1014.64
2018-11-22T05:18:51.069Z,1014.63
2018-11-22T05:19:51.106Z,1014.59
2018-11-22T05:20:51.132Z,1014.59
2018-11-22T05:21:51.162Z,1014.61
2018-11-22T05:22:51.143Z,1014.61
2018-11-22T05:23:51.483Z,1014.61
2018-11-22T05:24:51.208Z,1014.58
2018-11-22T05:25:51.238Z,1014.60
2018-11-22T05:26:51.318Z,1014.55
2018-11-22T05:27:51.362Z,1014.57
2018-11-22T05:28:51.329Z,1014.57
2018-11-22T05:29:51.414Z,1014.56
2018-11-22T05:30:51.743Z,1014.56
2018-11-22T05:31:51.424Z,1014.55
2018-11-22T05:32:51.509Z,1014.58
2018-11-22T05:33:51.519Z,1014.59
2018-11-22T05:34:51.516Z,1014.59
2018-11-22T05:35:51.552Z,1014.57
2018-11-22T05:36:51.581Z,1014.55
2018-11-22T05:37:51.917Z,1014.55
2018-11-22T05:38:52.095Z,1014.53
2018-11-22T05:39:51.746Z,1014.52
2018-11-22T05:40:51.754Z,1014.52
2018-11-22T05:41:51.788Z,1014.55
2018-11-22T05:42:51.771Z,1014.55
2018-11-22T05:43:51.846Z,1014.54
2018-11-22T05:44:52.129Z,1014.55
2018-11-22T05:45:51.962Z,1014.53
2018-11-22T05:46:51.892Z,1014.54
2018-11-22T05:47:51.919Z,1014.58
2018-11-22T05:48:52.007Z,1014.53
2018-11-22T05:49:52.039Z,1014.55
2018-11-22T05:50:52.080Z,1014.56
2018-11-22T05:51:52.346Z,1014.59
2018-11-22T05:52:52.116Z,1014.57
2018-11-22T05:53:52.155Z,1014.56
2018-11-22T05:54:52.143Z,1014.59
2018-11-22T05:55:52.179Z,1014.56
2018-11-22T05:56:52.279Z,1014.52
2018-11-22T05:57:52.529Z,1014.56
2018-11-22T05:58:52.290Z,1014.55
2018-11-22T05:59:52.309Z,1014.53
2018-11-22T06:00:52.372Z,1014.56
2018-11-22T06:01:52.361Z,1014.52
2018-11-22T06:02:52.439Z,1014.55
2018-11-22T06:03:52.779Z,1014.58
2018-11-22T06:04:52.451Z,1014.57
2018-11-22T06:05:52.530Z,1014.57
2018-11-22T06:06:52.513Z,1014.58
2018-11-22T06:07:52.591Z,1014.56
2018-11-22T06:08:52.574Z,1014.60
2018-11-22T06:09:52.707Z,1014.60
2018-11-22T06:11:52.727Z,1014.62
2018-11-22T06:12:52.697Z,1014.60
2018-11-22T06:13:52.784Z,1014.58
2018-11-22T06:14:52.757Z,1014.60
2018-11-22T06:15:53.142Z,1014.51
2018-11-22T06:16:52.871Z,1014.58
2018-11-22T06:17:52.904Z,1014.52
2018-11-22T06:19:52.962Z,1014.57
2018-11-22T06:20:52.948Z,1014.61
2018-11-22T06:21:53.042Z,1014.58
2018-11-22T06:22:53.335Z,1014.57
2018-11-22T06:23:53.143Z,1014.57
2018-11-22T06:24:53.169Z,1014.58
2018-11-22T06:25:53.191Z,1014.59
2018-11-22T06:26:53.190Z,1014.61
2018-11-22T06:27:53.163Z,1014.59
2018-11-22T06:28:53.245Z,1014.63
2018-11-22T06:29:53.525Z,1014.61
2018-11-22T06:30:53.255Z,1014.62
2018-11-22T06:31:53.292Z,1014.63
2018-11-22T06:32:53.367Z,1014.69
2018-11-22T06:33:53.350Z,1014.72
2018-11-22T06:34:53.434Z,1014.69
2018-11-22T06:35:53.512Z,1014.68
2018-11-22T06:36:53.801Z,1014.69
2018-11-22T06:37:53.475Z,1014.67
2018-11-22T06:38:53.561Z,1014.68
2018-11-22T06:39:53.538Z,1014.62
2018-11-22T06:40:53.616Z,1014.67
2018-11-22T06:41:53.700Z,1014.67
2018-11-22T06:42:53.629Z,1014.65
2018-11-22T06:43:54.022Z,1014.64
2018-11-22T06:44:53.739Z,1014.66
2018-11-22T06:45:53.976Z,1014.63
2018-11-22T06:46:53.754Z,1014.69
2018-11-22T06:47:53.835Z,1014.67
2018-11-22T06:48:53.923Z,1014.67
2018-11-22T06:49:53.895Z,1014.65
2018-11-22T06:50:58.207Z,1014.73
2018-11-22T06:51:53.962Z,1014.67
2018-11-22T06:52:54.020Z,1014.73
2018-11-22T06:53:54.019Z,1014.74
2018-11-22T06:54:54.002Z,1014.76
2018-11-22T06:55:54.031Z,1014.75
2018-11-22T06:57:54.106Z,1014.76
2018-11-22T06:58:54.475Z,1014.75
2018-11-22T06:59:54.208Z,1014.73
2018-11-22T07:00:54.237Z,1014.75
2018-11-22T07:01:54.333Z,1014.73
2018-11-22T07:02:54.250Z,1014.73
2018-11-22T07:03:54.330Z,1014.74
2018-11-22T07:04:54.360Z,1014.76
2018-11-22T07:05:54.646Z,1014.75
2018-11-22T07:06:54.374Z,1014.76
2018-11-22T07:07:54.406Z,1014.77
2018-11-22T07:08:54.441Z,1014.77
2018-11-22T07:09:54.519Z,1014.77
2018-11-22T07:10:54.500Z,1014.79
2018-11-22T07:11:54.597Z,1014.75
2018-11-22T07:12:55.213Z,1014.75
2018-11-22T07:13:54.645Z,1014.77
2018-11-22T07:14:54.635Z,1014.80
2018-11-22T07:15:54.711Z,1014.76
2018-11-22T07:16:54.684Z,1014.81
2018-11-22T07:17:54.713Z,1014.77
2018-11-22T07:18:54.843Z,1014.79
2018-11-22T07:19:55.181Z,1014.78
2018-11-22T07:20:54.806Z,1014.79
2018-11-22T07:22:54.874Z,1014.81
2018-11-22T07:24:54.983Z,1014.81
2018-11-22T07:25:55.010Z,1014.78
2018-11-22T07:26:55.298Z,1014.85
2018-11-22T07:27:55.027Z,1014.86
2018-11-22T07:29:55.143Z,1014.83
2018-11-22T07:30:55.122Z,1014.83
2018-11-22T07:31:55.197Z,1014.87
2018-11-22T07:32:55.534Z,1014.87
2018-11-22T07:33:55.561Z,1014.84
2018-11-22T07:34:55.292Z,1014.84
2018-11-22T07:35:55.272Z,1014.79
2018-11-22T07:37:55.349Z,1014.83
2018-11-22T07:38:55.447Z,1014.83
2018-11-22T07:39:55.397Z,1014.82
2018-11-22T07:40:55.734Z,1014.82
2018-11-22T07:41:55.468Z,1014.80
2018-11-22T07:42:55.504Z,1014.84
2018-11-22T07:43:55.573Z,1014.85
2018-11-22T07:44:55.556Z,1014.86
2018-11-22T07:45:55.638Z,1014.86
2018-11-22T07:46:55.913Z,1014.89
2018-11-22T07:47:55.819Z,1014.89
2018-11-22T07:48:55.744Z,1014.86
2018-11-22T07:49:55.724Z,1014.90
2018-11-22T07:51:55.869Z,1014.87
2018-11-22T07:52:56.110Z,1014.86
2018-11-22T07:53:55.890Z,1014.87
2018-11-22T07:54:55.941Z,1014.86
2018-11-22T07:55:55.949Z,1014.87
2018-11-22T07:56:55.978Z,1014.87
2018-11-22T07:57:56.015Z,1014.88
2018-11-22T07:58:56.288Z,1014.87
2018-11-22T07:59:56.069Z,1014.87
2018-11-22T08:00:56.051Z,1014.90
2018-11-22T08:01:56.198Z,1014.86
2018-11-22T08:02:56.112Z,1014.86
2018-11-22T08:03:56.294Z,1014.89
2018-11-22T08:04:56.225Z,1014.87
2018-11-22T08:05:56.853Z,1014.87
2018-11-22T08:06:56.288Z,1014.88
2018-11-22T08:07:56.267Z,1014.86
2018-11-22T08:08:56.297Z,1014.86
2018-11-22T08:09:56.376Z,1014.87
2018-11-22T08:10:56.362Z,1014.88
2018-11-22T08:11:56.468Z,1014.87
2018-11-22T08:13:56.752Z,1014.86
2018-11-22T08:14:56.490Z,1014.88
2018-11-22T08:15:56.565Z,1014.84
2018-11-22T08:16:56.649Z,1014.86
2018-11-22T08:17:56.631Z,1014.83
2018-11-22T08:18:56.666Z,1014.86
2018-11-22T08:19:56.992Z,1014.87
2018-11-22T08:20:56.723Z,1014.87
2018-11-22T08:21:56.702Z,1014.91
2018-11-22T08:22:56.787Z,1014.92
2018-11-22T08:23:56.813Z,1014.91
2018-11-22T08:24:56.799Z,1014.92
2018-11-22T08:26:56.859Z,1014.93
2018-11-22T08:27:57.188Z,1014.91
2018-11-22T08:28:56.918Z,1014.90
2018-11-22T08:29:56.999Z,1014.88
2018-11-22T08:30:56.988Z,1014.91
2018-11-22T08:31:57.079Z,1014.87
2018-11-22T08:32:57.046Z,1014.91
2018-11-22T08:33:57.078Z,1014.92
2018-11-22T08:34:57.413Z,1014.92
2018-11-22T08:35:57.191Z,1014.88
2018-11-22T08:36:57.221Z,1014.91
2018-11-22T08:37:57.202Z,1014.89
2018-11-22T08:38:57.232Z,1014.90
2018-11-22T08:39:57.265Z,1014.91
2018-11-22T08:40:57.358Z,1014.88
2018-11-22T08:41:57.624Z,1014.88
2018-11-22T08:42:57.381Z,1014.94
2018-11-22T08:43:57.403Z,1014.96
2018-11-22T08:44:57.437Z,1014.89
2018-11-22T08:45:57.502Z,1014.91
2018-11-22T08:46:57.574Z,1014.89
2018-11-22T08:47:57.577Z,1014.92
2018-11-22T08:48:57.543Z,1014.89
2018-11-22T08:49:57.575Z,1014.88
2018-11-22T08:50:57.667Z,1014.92
2018-11-22T08:51:57.701Z,1014.90
2018-11-22T08:53:57.751Z,1014.94
2018-11-22T08:54:57.783Z,1014.93
2018-11-22T08:55:57.769Z,1014.94
2018-11-22T08:56:57.897Z,1014.99
2018-11-22T08:57:57.878Z,1015.00
2018-11-22T08:58:57.967Z,1015.00
2018-11-22T08:59:57.902Z,1014.95
2018-11-22T09:00:58.319Z,1014.97
2018-11-22T09:01:58.037Z,1014.97
2018-11-22T09:02:58.040Z,1015.00
2018-11-22T09:03:58.061Z,1015.04
2018-11-22T09:04:58.153Z,1015.03
2018-11-22T09:05:58.071Z,1015.04
2018-11-22T09:06:58.208Z,1015.04
2018-11-22T09:07:58.435Z,1015.03
2018-11-22T09:08:58.189Z,1015.04
2018-11-22T09:10:02.477Z,1015.03
2018-11-22T09:10:58.238Z,1015.00
2018-11-22T09:13:58.373Z,1015.02
2018-11-22T09:16:58.768Z,1015.04
2018-11-22T09:17:58.503Z,1015.02
2018-11-22T09:18:58.537Z,1014.99
2018-11-22T09:19:58.973Z,1015.02
2018-11-22T09:21:58.623Z,1015.03
2018-11-22T09:22:58.654Z,1015.04
2018-11-22T09:23:58.993Z,1015.00
2018-11-22T09:25:58.750Z,1015.04
2018-11-22T09:27:58.811Z,1015.06
2018-11-22T09:28:58.844Z,1015.02
2018-11-22T09:30:58.907Z,1015.03
2018-11-22T09:31:58.938Z,1015.01
2018-11-22T09:32:58.974Z,1015.02
2018-11-22T09:33:59.000Z,1015.03
2018-11-22T09:34:59.331Z,1015.04
2018-11-22T09:35:59.065Z,1015.04
2018-11-22T09:36:59.049Z,1015.04
2018-11-22T09:37:59.433Z,1015.07
2018-11-22T09:38:59.110Z,1015.07
2018-11-22T09:39:59.138Z,1015.06
2018-11-22T09:40:59.234Z,1015.07
2018-11-22T09:42:59.284Z,1015.11
2018-11-22T09:44:59.347Z,1015.09
2018-11-22T09:45:59.379Z,1015.09
2018-11-22T09:46:59.412Z,1015.09
2018-11-22T09:47:59.444Z,1015.13
2018-11-22T09:48:59.419Z,1015.15
2018-11-22T09:49:59.452Z,1015.13
2018-11-22T09:50:59.487Z,1015.14
2018-11-22T09:51:59.571Z,1015.13
2018-11-22T09:52:59.552Z,1015.14
2018-11-22T09:53:59.648Z,1015.17
2018-11-22T09:54:59.861Z,1015.15
2018-11-22T09:55:59.702Z,1015.15
2018-11-22T09:56:59.673Z,1015.15
2018-11-22T09:58:00.012Z,1015.19
2018-11-22T09:58:59.799Z,1015.17
2018-11-22T09:59:59.816Z,1015.17
2018-11-22T10:01:00.201Z,1015.15
2018-11-22T10:01:59.879Z,1015.14
2018-11-22T10:02:59.910Z,1015.16
2018-11-22T10:04:00.194Z,1015.15
2018-11-22T10:05:00.397Z,1015.16
2018-11-22T10:06:00.020Z,1015.15
2018-11-22T10:06:59.996Z,1015.13
2018-11-22T10:08:00.079Z,1015.19
2018-11-22T10:09:00.068Z,1015.20
2018-11-22T10:10:00.384Z,1015.19
2018-11-22T10:11:00.211Z,1015.20
2018-11-22T10:12:00.195Z,1015.18
2018-11-22T10:13:00.233Z,1015.20
2018-11-22T10:14:00.270Z,1015.21
2018-11-22T10:15:00.238Z,1015.23
2018-11-22T10:16:00.280Z,1015.22
2018-11-22T10:17:00.688Z,1015.23
2018-11-22T10:18:00.381Z,1015.25
2018-11-22T10:19:00.375Z,1015.21
2018-11-22T10:20:00.443Z,1015.21
2018-11-22T10:21:00.536Z,1015.21
2018-11-22T10:22:00.458Z,1015.21
2018-11-22T10:23:00.537Z,1015.20
2018-11-22T10:24:00.873Z,1015.14
2018-11-22T10:25:00.592Z,1015.16
2018-11-22T10:26:00.594Z,1015.16
2018-11-22T10:27:00.618Z,1015.17
2018-11-22T10:28:00.657Z,1015.19
2018-11-22T10:29:00.831Z,1015.21
2018-11-22T10:30:00.780Z,1015.22
2018-11-22T10:31:01.097Z,1015.21
2018-11-22T10:32:00.823Z,1015.22
2018-11-22T10:33:00.854Z,1015.20
2018-11-22T10:34:00.885Z,1015.25
2018-11-22T10:35:00.924Z,1015.21
2018-11-22T10:36:00.898Z,1015.26
2018-11-22T10:37:01.069Z,1015.27
2018-11-22T10:38:01.453Z,1015.25
2018-11-22T10:39:01.061Z,1015.25
2018-11-22T10:40:01.083Z,1015.22
2018-11-22T10:41:01.114Z,1015.28
2018-11-22T10:42:01.138Z,1015.23
2018-11-22T10:43:01.176Z,1015.23
2018-11-22T10:44:01.220Z,1015.25
2018-11-22T10:45:01.735Z,1015.27
2018-11-22T10:46:01.528Z,1015.25
2018-11-22T10:47:01.567Z,1015.25
2018-11-22T10:48:01.339Z,1015.25
2018-11-22T10:49:01.316Z,1015.24
2018-11-22T10:51:01.427Z,1015.27
2018-11-22T10:52:01.705Z,1015.25
2018-11-22T10:53:01.490Z,1015.22
2018-11-22T10:54:01.521Z,1015.24
2018-11-22T10:55:01.500Z,1015.25
2018-11-22T10:56:01.647Z,1015.26
2018-11-22T10:57:01.967Z,1015.23
2018-11-22T10:58:01.603Z,1015.23
2018-11-22T10:59:02.230Z,1015.24
2018-11-22T11:00:02.191Z,1015.20
2018-11-22T11:01:01.777Z,1015.23
2018-11-22T11:02:01.977Z,1015.24
2018-11-22T11:04:01.813Z,1015.20
2018-11-22T11:05:01.830Z,1015.20
2018-11-22T11:06:02.144Z,1015.24
2018-11-22T11:07:02.079Z,1015.26
2018-11-22T11:08:01.911Z,1015.19
2018-11-22T11:09:01.999Z,1015.21
2018-11-22T11:10:01.989Z,1015.17
2018-11-22T11:11:02.079Z,1015.18
2018-11-22T11:12:02.134Z,1015.19
2018-11-22T11:13:02.369Z,1015.21
2018-11-22T11:14:02.100Z,1015.19
2018-11-22T11:15:02.227Z,1015.17
2018-11-22T11:16:02.220Z,1015.18
2018-11-22T11:18:02.282Z,1015.22
2018-11-22T11:19:02.321Z,1015.22
2018-11-22T11:20:02.646Z,1015.22
2018-11-22T11:21:02.699Z,1015.15
2018-11-22T11:22:02.769Z,1015.16
2018-11-22T11:23:02.388Z,1015.12
2018-11-22T11:24:02.473Z,1015.11
2018-11-22T11:25:02.499Z,1015.13
2018-11-22T11:26:02.533Z,1015.10
2018-11-22T11:27:03.300Z,1015.11
2018-11-22T11:28:02.671Z,1015.10
2018-11-22T11:29:02.627Z,1015.09
2018-11-22T11:30:03.008Z,1015.08
2018-11-22T11:31:02.736Z,1015.12
2018-11-22T11:32:02.672Z,1015.12
2018-11-22T11:33:02.753Z,1015.14
2018-11-22T11:34:03.046Z,1015.12
2018-11-22T11:35:02.823Z,1015.10
2018-11-22T11:36:02.848Z,1015.15
2018-11-22T11:37:02.830Z,1015.17
2018-11-22T11:38:03.010Z,1015.18
2018-11-22T11:39:02.941Z,1015.14
2018-11-22T11:40:02.974Z,1015.18
2018-11-22T11:41:03.342Z,1015.14
2018-11-22T11:42:03.042Z,1015.17
2018-11-22T11:43:03.018Z,1015.17
2018-11-22T11:44:03.120Z,1015.18
2018-11-22T11:45:03.082Z,1015.17
2018-11-22T11:46:03.170Z,1015.14
2018-11-22T11:47:03.143Z,1015.10
2018-11-22T11:48:03.542Z,1015.14
2018-11-22T11:49:03.256Z,1015.10
2018-11-22T11:50:03.319Z,1015.11
2018-11-22T11:51:03.270Z,1015.10
2018-11-22T11:53:03.389Z,1015.15
2018-11-22T11:54:03.669Z,1015.12
2018-11-22T11:55:03.446Z,1015.13
2018-11-22T11:56:03.435Z,1015.11
2018-11-22T11:57:03.519Z,1015.11
2018-11-22T11:58:03.545Z,1015.13
2018-11-22T11:59:03.539Z,1015.14
2018-11-22T12:00:04.209Z,1015.10
2018-11-22T12:01:03.640Z,1015.11
2018-11-22T12:02:03.781Z,1015.11
2018-11-22T12:03:03.654Z,1015.05
2018-11-22T12:04:03.947Z,1015.02
2018-11-22T12:05:03.731Z,1015.01
2018-11-22T12:06:04.046Z,1015.01
2018-11-22T12:07:03.831Z,1014.99
2018-11-22T12:08:03.900Z,1014.98
2018-11-22T12:09:03.855Z,1014.97
2018-11-22T12:10:03.981Z,1014.92
2018-11-22T12:11:03.909Z,1014.92
2018-11-22T12:12:03.941Z,1014.90
2018-11-22T12:13:04.272Z,1014.87
2018-11-22T12:14:04.057Z,1014.91
2018-11-22T12:15:04.038Z,1014.89
2018-11-22T12:16:04.133Z,1014.91
2018-11-22T12:17:04.106Z,1014.91
2018-11-22T12:18:04.302Z,1014.89
2018-11-22T12:19:04.215Z,1014.90
2018-11-22T12:20:04.498Z,1014.86
2018-11-22T12:21:04.228Z,1014.85
2018-11-22T12:22:04.266Z,1014.87
2018-11-22T12:23:04.291Z,1014.84
2018-11-22T12:24:04.386Z,1014.83
2018-11-22T12:25:04.406Z,1014.83
2018-11-22T12:26:04.790Z,1014.84
2018-11-22T12:27:04.765Z,1014.82
2018-11-22T12:28:04.511Z,1014.85
2018-11-22T12:29:04.485Z,1014.85
2018-11-22T12:30:04.526Z,1014.85
2018-11-22T12:31:06.607Z,1014.81
2018-11-22T12:32:04.586Z,1014.84
2018-11-22T12:33:04.615Z,1014.81
2018-11-22T12:34:04.659Z,1014.80
2018-11-22T12:35:04.746Z,1014.79
2018-11-22T12:36:04.774Z,1014.80
2018-11-22T12:37:04.746Z,1014.79
2018-11-22T12:38:04.784Z,1014.82
2018-11-22T12:39:04.859Z,1014.80
2018-11-22T12:40:05.145Z,1014.76
2018-11-22T12:41:04.880Z,1014.81
2018-11-22T12:42:04.955Z,1014.77
2018-11-22T12:43:04.956Z,1014.79
2018-11-22T12:44:05.001Z,1014.74
2018-11-22T12:45:05.050Z,1014.73
2018-11-22T12:46:05.145Z,1014.72
2018-11-22T12:48:05.448Z,1014.71
2018-11-22T12:49:05.248Z,1014.71
2018-11-22T12:50:05.248Z,1014.71
2018-11-22T12:51:05.250Z,1014.73
2018-11-22T12:52:05.288Z,1014.71
2018-11-22T12:53:05.321Z,1014.68
2018-11-22T12:54:05.343Z,1014.71
2018-11-22T12:55:05.623Z,1014.77
2018-11-22T12:56:05.409Z,1014.73
2018-11-22T12:57:05.444Z,1014.74
2018-11-22T12:58:05.489Z,1014.71
2018-11-22T12:59:05.800Z,1014.68
2018-11-22T13:00:05.504Z,1014.68
2018-11-22T13:01:05.568Z,1014.71
2018-11-22T13:02:05.862Z,1014.65
2018-11-22T13:03:05.631Z,1014.68
2018-11-22T13:04:05.667Z,1014.66
2018-11-22T13:05:05.647Z,1014.64
2018-11-22T13:06:05.692Z,1014.64
2018-11-22T13:07:05.798Z,1014.64
2018-11-22T13:08:05.791Z,1014.68
2018-11-22T13:09:05.825Z,1014.66
2018-11-22T13:10:05.861Z,1014.67
2018-11-22T13:11:06.042Z,1014.65
2018-11-22T13:12:05.933Z,1014.66
2018-11-22T13:13:05.904Z,1014.61
2018-11-22T13:14:05.993Z,1014.64